Time;durP1;ratioP1;P1;durP2;ratioP2;P2;SDS_P1;SDS_P2;PMS_P1;PMS_P2;Temp;Humidity;BMP_temperature;BMP_pressure;BME280_temperature;BME280_humidity;BME280_pressure;Samples;Min_cycle;Max_cycle;Signal;HPM_P1;HPM_P2
2023/07/29 00:05:01;;;;;;;9.93;6.68;;;;;;;16.51;100.00;100506.25;5054393;28;20044;-77
2023/07/29 00:10:48;;;;;;;7.68;6.13;;;;;;;16.43;100.00;100492.16;5054327;28;20040;-77
2023/07/29 00:13:13;;;;;;;6.95;5.78;;;;;;;16.45;100.00;100496.47;5053979;28;20017;-78
2023/07/29 00:19:02;;;;;;;12.40;6.97;;;;;;;16.30;100.00;100499.91;5053863;28;20270;-77
2023/07/29 00:21:27;;;;;;;9.40;6.47;;;;;;;16.30;100.00;100508.81;5060411;28;20077;-77
2023/07/29 00:23:53;;;;;;;7.93;6.67;;;;;;;16.31;100.00;100501.53;5052652;28;20033;-78
2023/07/29 00:26:18;;;;;;;12.03;6.60;;;;;;;16.37;100.00;100500.47;5053938;28;20362;-78
2023/07/29 00:28:43;;;;;;;10.55;7.03;;;;;;;16.40;100.00;100499.97;5055868;28;20287;-78
2023/07/29 00:31:09;;;;;;;11.48;7.78;;;;;;;16.40;100.00;100500.75;5053916;28;20029;-77
2023/07/29 00:33:35;;;;;;;10.20;6.47;;;;;;;16.36;100.00;100488.88;5052352;28;20032;-77
2023/07/29 00:39:22;;;;;;;7.28;6.32;;;;;;;16.49;100.00;100493.00;5053778;28;20185;-77
2023/07/29 00:41:48;;;;;;;9.45;7.32;;;;;;;16.51;100.00;100488.16;5060337;28;20061;-78
2023/07/29 00:44:13;;;;;;;9.63;7.20;;;;;;;16.52;100.00;100480.88;5052234;28;20033;-77
2023/07/29 00:46:40;;;;;;;11.23;7.93;;;;;;;16.46;100.00;100474.63;5053530;28;20346;-78
2023/07/29 00:52:27;;;;;;;10.18;7.63;;;;;;;16.42;100.00;100477.03;5053704;28;20043;-77
2023/07/29 00:54:52;;;;;;;7.43;6.38;;;;;;;16.39;100.00;100471.34;5060125;28;20049;-77
2023/07/29 00:57:19;;;;;;;11.10;7.65;;;;;;;16.30;100.00;100471.03;5052093;28;20021;-77
2023/07/29 00:59:44;;;;;;;11.45;6.63;;;;;;;16.28;100.00;100473.19;5053271;28;20495;-77
2023/07/29 01:02:09;;;;;;;12.63;8.10;;;;;;;16.22;100.00;100459.94;5055134;28;20041;-77
2023/07/29 01:08:09;;;;;;;9.40;7.63;;;;;;;16.25;100.00;100473.72;5053456;28;20397;-78
2023/07/29 01:10:54;;;;;;;11.52;7.75;;;;;;;16.27;100.00;100474.25;5053164;28;20047;-78
2023/07/29 01:13:29;;;;;;;11.68;7.60;;;;;;;16.27;100.00;100465.34;5053113;28;20029;-78
2023/07/29 01:16:15;;;;;;;10.00;7.68;;;;;;;16.23;100.00;100473.16;5059918;28;20044;-77
2023/07/29 01:18:42;;;;;;;8.43;6.88;;;;;;;16.17;100.00;100473.34;5051881;28;20024;-77
2023/07/29 01:21:09;;;;;;;9.43;7.35;;;;;;;16.11;100.00;100469.81;5054704;28;20087;-77
2023/07/29 01:23:35;;;;;;;11.35;7.35;;;;;;;16.09;100.00;100471.97;5053028;28;20382;-77
2023/07/29 01:26:02;;;;;;;10.73;7.60;;;;;;;16.01;100.00;100469.75;5052983;28;20388;-77
2023/07/29 01:28:27;;;;;;;8.32;7.50;;;;;;;16.03;100.00;100484.63;5059684;28;20497;-77
2023/07/29 01:31:16;;;;;;;15.55;8.30;;;;;;;15.97;100.00;100471.34;5052744;28;20036;-77
2023/07/29 01:33:57;;;;;;;10.27;8.55;;;;;;;16.00;100.00;100478.91;5059228;28;20570;-77
2023/07/29 01:36:27;;;;;;;11.25;8.77;;;;;;;16.05;100.00;100479.78;5052813;28;20111;-77
2023/07/29 01:38:55;;;;;;;11.52;8.63;;;;;;;16.06;100.00;100475.19;5052700;28;20032;-77
2023/07/29 01:41:21;;;;;;;11.65;8.20;;;;;;;16.09;100.00;100482.75;5059371;28;20052;-78
2023/07/29 01:47:08;;;;;;;16.02;10.00;;;;;;;16.18;100.00;100486.59;5052870;28;20048;-78
2023/07/29 01:49:33;;;;;;;13.40;10.10;;;;;;;16.22;100.00;100486.91;5052556;28;20025;-78
2023/07/29 01:51:59;;;;;;;13.30;9.50;;;;;;;16.26;100.00;100494.22;5052498;28;20109;-78
2023/07/29 01:54:25;;;;;;;14.40;11.07;;;;;;;16.30;100.00;100494.50;5054558;28;20032;-77
2023/07/29 01:56:51;;;;;;;18.48;10.25;;;;;;;16.37;100.00;100490.50;5051192;28;20021;-78
2023/07/29 02:02:38;;;;;;;15.35;10.00;;;;;;;16.38;100.00;100492.13;5052666;28;20416;-77
2023/07/29 02:05:03;;;;;;;12.80;9.97;;;;;;;16.30;100.00;100470.22;5052210;28;20138;-78
2023/07/29 02:07:29;;;;;;;16.58;10.48;;;;;;;16.32;100.00;100476.16;5059022;28;20288;-77
2023/07/29 02:09:54;;;;;;;16.75;10.48;;;;;;;16.37;100.00;100484.28;5051251;28;20044;-77
2023/07/29 02:12:19;;;;;;;15.90;10.43;;;;;;;16.33;100.00;100467.81;5050932;28;20049;-77
2023/07/29 02:14:45;;;;;;;12.70;9.60;;;;;;;16.37;100.00;100477.00;5054119;28;20280;-77
2023/07/29 02:17:10;;;;;;;13.77;10.13;;;;;;;16.33;100.00;100470.50;5052300;28;20021;-78
2023/07/29 02:19:35;;;;;;;12.27;9.40;;;;;;;16.31;100.00;100459.16;5053961;28;20268;-77
2023/07/29 02:22:00;;;;;;;13.93;9.20;;;;;;;16.30;100.00;100462.13;5053571;28;20291;-78
2023/07/29 02:24:26;;;;;;;12.80;8.70;;;;;;;16.20;100.00;100457.50;5051025;28;20032;-77
2023/07/29 02:26:51;;;;;;;13.03;9.17;;;;;;;16.19;100.00;100463.97;5058976;28;20659;-78
2023/07/29 02:29:16;;;;;;;13.10;9.33;;;;;;;16.14;100.00;100469.31;5052396;28;20282;-77
2023/07/29 02:31:44;;;;;;;12.17;8.80;;;;;;;16.09;100.00;100463.88;5052308;28;20820;-78
2023/07/29 02:34:09;;;;;;;11.80;9.10;;;;;;;16.08;100.00;100464.94;5058863;28;20370;-77
2023/07/29 02:36:34;;;;;;;12.93;8.70;;;;;;;16.02;100.00;100460.59;5051999;28;20108;-78
2023/07/29 02:38:59;;;;;;;11.73;9.30;;;;;;;15.97;100.00;100464.06;5051935;28;20759;-78
2023/07/29 02:41:25;;;;;;;13.27;9.05;;;;;;;15.91;100.00;100450.81;5058528;28;20372;-78
2023/07/29 02:43:51;;;;;;;13.13;8.95;;;;;;;15.92;100.00;100463.22;5051869;28;20513;-78
2023/07/29 02:46:16;;;;;;;9.85;7.70;;;;;;;15.90;100.00;100473.44;5055487;28;20060;-78
2023/07/29 02:52:04;;;;;;;10.90;8.05;;;;;;;15.84;100.00;100461.00;5051762;28;20040;-79
2023/07/29 02:54:29;;;;;;;11.57;7.28;;;;;;;15.83;100.00;100462.06;5058439;28;20041;-77
2023/07/29 02:56:54;;;;;;;10.07;7.40;;;;;;;15.77;100.00;100455.81;5051614;28;20033;-77
2023/07/29 02:59:20;;;;;;;10.50;7.20;;;;;;;15.79;100.00;100462.59;5057967;28;20328;-78
2023/07/29 03:01:45;;;;;;;8.93;6.43;;;;;;;15.76;100.00;100460.41;5052094;28;20031;-78
2023/07/29 03:07:32;;;;;;;8.07;6.13;;;;;;;15.70;100.00;100452.53;5051503;28;20090;-79
2023/07/29 03:09:57;;;;;;;9.90;6.88;;;;;;;15.72;100.00;100450.41;5051463;28;20029;-78
2023/07/29 03:12:22;;;;;;;11.63;7.07;;;;;;;15.71;100.00;100459.56;5053573;28;20455;-78
2023/07/29 03:14:48;;;;;;;8.88;6.40;;;;;;;15.69;100.00;100465.19;5056040;28;20275;-77
2023/07/29 03:20:35;;;;;;;11.45;6.90;;;;;;;15.63;100.00;100452.75;5051455;28;20131;-78
2023/07/29 03:23:01;;;;;;;8.43;6.80;;;;;;;15.62;100.00;100451.13;5051604;28;20100;-79
2023/07/29 03:25:26;;;;;;;10.85;6.93;;;;;;;15.62;100.00;100467.31;5051205;28;20817;-78
2023/07/29 03:27:51;;;;;;;11.87;6.73;;;;;;;15.57;100.00;100466.41;5058038;28;20095;-78
2023/07/29 03:33:38;;;;;;;9.43;6.72;;;;;;;15.58;100.00;100479.66;5051569;28;20071;-78
2023/07/29 03:36:04;;;;;;;10.88;6.95;;;;;;;15.52;100.00;100461.78;5049875;28;20485;-79
2023/07/29 03:38:29;;;;;;;10.20;7.00;;;;;;;15.53;100.00;100460.72;5051240;28;20078;-79
2023/07/29 03:40:54;;;;;;;11.43;7.83;;;;;;;15.52;100.00;100483.34;5057845;28;20392;-79
2023/07/29 03:43:20;;;;;;;8.57;6.80;;;;;;;15.49;100.00;100476.56;5049809;28;20275;-79
2023/07/29 03:45:45;;;;;;;9.25;7.28;;;;;;;15.46;100.00;100469.00;5056176;28;20496;-79
2023/07/29 03:48:10;;;;;;;8.05;7.05;;;;;;;15.50;100.00;100466.59;5052465;28;20040;-79
2023/07/29 03:53:57;;;;;;;9.68;7.03;;;;;;;15.40;100.00;100458.44;5050929;28;20325;-80
2023/07/29 03:56:22;;;;;;;8.47;6.53;;;;;;;15.37;100.00;100448.19;5050724;28;20033;-79
2023/07/29 03:58:49;;;;;;;10.37;6.60;;;;;;;15.34;100.00;100443.31;5054478;28;20287;-79
2023/07/29 04:01:14;;;;;;;8.43;6.35;;;;;;;15.37;100.00;100432.00;5058206;28;20378;-79
2023/07/29 04:03:39;;;;;;;10.18;6.18;;;;;;;15.34;100.00;100411.78;5054294;28;20109;-80
2023/07/29 04:06:05;;;;;;;10.23;6.63;;;;;;;15.33;100.00;100428.22;5059978;28;20048;-78
2023/07/29 04:11:52;;;;;;;10.73;6.50;;;;;;;15.26;100.00;100416.81;5054419;28;20440;-79
2023/07/29 04:14:17;;;;;;;12.82;7.10;;;;;;;15.30;100.00;100423.31;5060985;28;20064;-78
2023/07/29 04:16:42;;;;;;;10.60;6.20;;;;;;;15.31;100.00;100411.47;5054102;28;20032;-79
2023/07/29 04:19:07;;;;;;;9.25;6.57;;;;;;;15.29;100.00;100411.72;5058835;28;20436;-79
2023/07/29 04:21:33;;;;;;;8.50;5.78;;;;;;;15.32;100.00;100435.44;5054286;28;20392;-80
2023/07/29 04:23:58;;;;;;;7.30;5.90;;;;;;;15.32;100.00;100448.09;5052461;28;20033;-79
2023/07/29 04:26:23;;;;;;;9.13;6.77;;;;;;;15.30;100.00;100451.06;5060572;28;20290;-79
2023/07/29 04:28:49;;;;;;;8.25;6.18;;;;;;;15.34;100.00;100471.06;5053909;28;20271;-80
2023/07/29 04:31:14;;;;;;;8.53;6.30;;;;;;;15.32;100.00;100473.16;5053662;28;20543;-79
2023/07/29 04:33:39;;;;;;;13.77;7.00;;;;;;;15.43;100.00;100476.78;5055662;28;20303;-80
2023/07/29 04:36:04;;;;;;;7.40;5.87;;;;;;;15.46;100.00;100485.19;5052291;28;20287;-80
2023/07/29 04:38:33;;;;;;;9.67;6.80;;;;;;;15.52;100.00;100477.94;5054025;28;20747;-79
2023/07/29 04:41:01;;;;;;;19.67;6.35;;;;;;;15.53;100.00;100476.88;5059296;28;20300;-78
2023/07/29 04:46:47;;;;;;;10.02;5.78;;;;;;;15.56;100.00;100472.84;5053865;28;20055;-81
2023/07/29 04:49:13;;;;;;;9.57;5.85;;;;;;;15.59;100.00;100480.47;5053491;28;20120;-80
2023/07/29 04:51:38;;;;;;;8.30;6.07;;;;;;;15.64;100.00;100481.34;5053422;28;20056;-78
2023/07/29 04:54:04;;;;;;;8.75;5.93;;;;;;;15.72;100.00;100480.88;5060488;28;20136;-79
2023/07/29 04:56:29;;;;;;;7.05;5.65;;;;;;;15.72;100.00;100483.56;5053812;28;20036;-80
2023/07/29 04:58:55;;;;;;;8.83;5.37;;;;;;;15.72;100.00;100486.25;5057790;28;20051;-79
2023/07/29 05:04:41;;;;;;;9.00;5.35;;;;;;;15.74;100.00;100483.31;5053285;28;20128;-78
2023/07/29 05:07:07;;;;;;;6.57;5.20;;;;;;;15.77;100.00;100494.38;5055293;28;20124;-79
2023/07/29 05:09:32;;;;;;;7.77;5.00;;;;;;;15.78;100.00;100495.19;5052474;28;20333;-78
2023/07/29 05:11:57;;;;;;;7.65;5.28;;;;;;;15.83;100.00;100500.63;5056364;28;20742;-80
2023/07/29 05:17:44;;;;;;;7.03;4.80;;;;;;;15.88;100.00;100502.53;5053300;28;20056;-80
2023/07/29 05:20:10;;;;;;;8.57;4.30;;;;;;;15.93;100.00;100508.00;5054851;28;20493;-80
2023/07/29 05:22:35;;;;;;;8.38;4.82;;;;;;;16.01;100.00;100515.59;5053028;28;20283;-79
2023/07/29 05:25:00;;;;;;;5.10;4.27;;;;;;;15.98;100.00;100508.03;5053089;28;20032;-78
2023/07/29 05:27:25;;;;;;;9.50;4.43;;;;;;;16.05;100.00;100503.22;5059846;28;20297;-79
2023/07/29 05:29:51;;;;;;;6.25;5.07;;;;;;;16.04;100.00;100490.81;5051697;28;20272;-80
2023/07/29 05:35:37;;;;;;;6.90;4.13;;;;;;;16.18;100.00;100494.69;5052752;28;20789;-78
2023/07/29 05:38:05;;;;;;;8.10;4.38;;;;;;;16.29;100.00;100493.69;5052645;28;20033;-79
2023/07/29 05:40:30;;;;;;;6.05;4.70;;;;;;;16.37;100.00;100495.88;5059544;28;20037;-78
2023/07/29 05:42:56;;;;;;;6.88;4.25;;;;;;;16.39;100.00;100490.22;5051415;28;20116;-79
2023/07/29 05:45:21;;;;;;;6.55;4.50;;;;;;;16.54;100.00;100501.13;5056761;28;20146;-77
2023/07/29 05:47:47;;;;;;;6.70;4.28;;;;;;;16.69;100.00;100495.00;5055028;28;20028;-77
2023/07/29 05:50:12;;;;;;;6.45;4.38;;;;;;;17.16;100.00;100496.81;5052518;28;20033;-78
2023/07/29 05:52:38;;;;;;;5.47;4.50;;;;;;;17.85;100.00;100505.31;5059381;28;20045;-79
2023/07/29 05:58:25;;;;;;;5.65;3.70;;;;;;;19.75;100.00;100513.38;5052802;28;20828;-79
2023/07/29 06:00:50;;;;;;;5.07;4.10;;;;;;;19.94;100.00;100505.34;5059326;28;20045;-80
2023/07/29 06:03:15;;;;;;;4.83;3.93;;;;;;;20.03;100.00;100505.56;5052657;28;20354;-80
2023/07/29 06:05:40;;;;;;;4.80;3.60;;;;;;;20.17;100.00;100502.97;5059302;28;20788;-78
2023/07/29 06:08:08;;;;;;;5.07;3.97;;;;;;;20.66;100.00;100508.19;5052421;28;20021;-80
2023/07/29 06:10:33;;;;;;;6.15;3.75;;;;;;;21.06;100.00;100500.63;5052399;28;20283;-78
2023/07/29 06:12:58;;;;;;;4.85;3.75;;;;;;;20.93;100.00;100504.88;5054216;28;20127;-79
2023/07/29 06:15:24;;;;;;;5.30;3.70;;;;;;;20.80;100.00;100505.56;5051023;28;20734;-79
2023/07/29 06:17:49;;;;;;;4.53;3.50;;;;;;;20.40;100.00;100513.91;5052167;28;20022;-79
2023/07/29 06:20:14;;;;;;;5.95;3.17;;;;;;;20.56;100.00;100520.00;5058448;28;20283;-78
2023/07/29 06:22:41;;;;;;;5.38;3.85;;;;;;;20.71;100.00;100508.13;5050122;28;20170;-81
2023/07/29 06:25:06;;;;;;;5.53;3.60;;;;;;;20.55;100.00;100495.84;5050490;28;20044;-81
2023/07/29 06:27:32;;;;;;;5.55;3.72;;;;;;;20.24;100.00;100496.13;5053939;28;20048;-81
2023/07/29 06:29:57;;;;;;;5.03;3.63;;;;;;;20.16;100.00;100501.34;5051798;28;20025;-80
2023/07/29 06:32:22;;;;;;;5.43;3.27;;;;;;;20.43;100.00;100509.81;5056189;28;20395;-79
2023/07/29 06:34:47;;;;;;;5.83;3.93;;;;;;;20.46;100.00;100498.34;5050669;28;20021;-77
2023/07/29 06:37:13;;;;;;;6.60;3.77;;;;;;;21.12;100.00;100504.94;5051756;28;20420;-77
2023/07/29 06:39:38;;;;;;;5.20;3.22;;;;;;;21.90;100.00;100512.47;5053690;28;20302;-78
2023/07/29 06:42:03;;;;;;;7.60;3.50;;;;;;;22.86;100.00;100518.16;5051523;28;20032;-80
2023/07/29 06:44:29;;;;;;;4.47;3.40;;;;;;;23.75;100.00;100501.19;5051689;28;20763;-78
2023/07/29 06:46:54;;;;;;;6.03;3.50;;;;;;;24.63;97.97;100501.38;5058259;28;20121;-78
2023/07/29 06:49:19;;;;;;;4.80;3.10;;;;;;;25.00;95.81;100506.31;5050373;28;20279;-78
2023/07/29 06:51:44;;;;;;;4.57;3.20;;;;;;;24.94;93.42;100504.81;5051901;28;20061;-79
2023/07/29 06:57:32;;;;;;;4.97;2.92;;;;;;;26.17;89.13;100520.97;5051485;28;20039;-80
2023/07/29 06:59:57;;;;;;;5.65;3.28;;;;;;;26.82;84.91;100526.06;5053239;28;20488;-79
2023/07/29 07:02:22;;;;;;;5.00;2.75;;;;;;;26.92;81.74;100538.63;5051430;28;20045;-80
2023/07/29 07:04:48;;;;;;;5.13;2.70;;;;;;;26.60;81.61;100523.63;5051756;28;20468;-80
2023/07/29 07:07:13;;;;;;;4.23;3.00;;;;;;;26.64;86.77;100535.53;5058214;28;20041;-78
2023/07/29 07:09:38;;;;;;;4.70;3.23;;;;;;;27.33;80.61;100528.88;5051505;28;20029;-79
2023/07/29 07:12:04;;;;;;;3.37;2.53;;;;;;;26.99;78.00;100535.41;5057584;28;20282;-81
2023/07/29 07:14:29;;;;;;;4.05;2.83;;;;;;;25.50;84.60;100529.75;5051602;28;20045;-78
2023/07/29 07:16:54;;;;;;;4.83;2.93;;;;;;;24.24;91.70;100534.91;5051346;28;20021;-78
2023/07/29 07:19:20;;;;;;;3.53;3.07;;;;;;;23.57;97.43;100529.44;5058625;28;20295;-78
2023/07/29 07:21:45;;;;;;;6.70;3.17;;;;;;;23.35;97.49;100532.91;5051619;28;20287;-78
2023/07/29 07:24:10;;;;;;;4.17;3.20;;;;;;;22.97;99.84;100526.91;5049988;28;20283;-78
2023/07/29 07:26:36;;;;;;;4.13;2.92;;;;;;;22.93;100.00;100531.38;5057999;28;20041;-76
2023/07/29 07:29:01;;;;;;;5.30;2.80;;;;;;;22.86;100.00;100534.50;5051308;28;20025;-78
2023/07/29 07:31:26;;;;;;;3.78;3.38;;;;;;;22.60;100.00;100534.16;5051212;28;20116;-79
2023/07/29 07:33:52;;;;;;;9.27;3.10;;;;;;;22.23;100.00;100529.66;5056246;28;20041;-80
2023/07/29 07:36:17;;;;;;;3.47;3.00;;;;;;;22.43;100.00;100548.38;5054829;28;20299;-76
2023/07/29 07:38:42;;;;;;;6.07;3.50;;;;;;;22.25;100.00;100551.94;5060109;28;20048;-76
2023/07/29 07:41:08;;;;;;;5.25;3.13;;;;;;;22.16;100.00;100554.56;5055830;28;20049;-77
2023/07/29 07:46:55;;;;;;;4.35;3.25;;;;;;;22.11;100.00;100546.47;5054975;28;20098;-75
2023/07/29 07:49:20;;;;;;;5.07;3.45;;;;;;;22.11;100.00;100557.38;5054715;28;20025;-79
2023/07/29 07:51:45;;;;;;;6.07;3.28;;;;;;;21.99;100.00;100553.47;5056029;28;20087;-79
2023/07/29 07:57:32;;;;;;;4.72;3.40;;;;;;;22.47;100.00;100568.44;5055074;28;20325;-79
2023/07/29 07:59:58;;;;;;;5.27;3.17;;;;;;;22.51;100.00;100568.66;5056689;28;20045;-79
2023/07/29 08:02:23;;;;;;;5.05;3.00;;;;;;;23.13;100.00;100558.19;5054039;28;20299;-79
2023/07/29 08:04:48;;;;;;;6.53;3.10;;;;;;;24.59;96.33;100555.06;5054210;28;20465;-79
2023/07/29 08:07:14;;;;;;;5.83;2.80;;;;;;;25.01;89.21;100551.72;5061069;28;20281;-79
2023/07/29 08:13:00;;;;;;;3.97;2.70;;;;;;;25.25;88.14;100561.44;5054658;28;20036;-77
2023/07/29 08:15:26;;;;;;;4.67;2.90;;;;;;;25.55;86.09;100563.25;5053964;28;20025;-79
2023/07/29 08:17:51;;;;;;;3.10;2.30;;;;;;;24.75;87.66;100561.72;5054244;28;20321;-77
2023/07/29 08:20:16;;;;;;;4.83;2.50;;;;;;;23.90;91.19;100565.53;5061538;28;20040;-78
2023/07/29 08:26:05;;;;;;;3.67;2.70;;;;;;;22.26;100.00;100569.91;5054207;28;20114;-77
2023/07/29 08:28:32;;;;;;;4.53;2.40;;;;;;;22.07;100.00;100561.00;5053953;28;20532;-77
2023/07/29 08:30:58;;;;;;;5.30;2.80;;;;;;;22.39;100.00;100560.16;5053760;28;20433;-78
2023/07/29 08:33:24;;;;;;;3.30;2.55;;;;;;;22.54;100.00;100562.59;5060545;28;20170;-78
2023/07/29 08:35:49;;;;;;;3.50;2.70;;;;;;;22.47;100.00;100565.72;5052795;28;20571;-79
2023/07/29 08:41:56;;;;;;;2.72;2.20;;;;;;;23.30;98.21;100554.84;5054360;28;20059;-79
2023/07/29 08:47:43;;;;;;;2.58;2.15;;;;;;;22.71;100.00;100546.47;5054601;28;20415;-78
2023/07/29 08:50:09;;;;;;;3.03;2.30;;;;;;;23.00;98.69;100545.41;5053643;28;20028;-78
2023/07/29 08:52:36;;;;;;;3.30;2.55;;;;;;;24.55;93.14;100554.06;5060748;28;20485;-77
2023/07/29 08:58:24;;;;;;;3.20;2.08;;;;;;;27.44;75.06;100561.09;5055526;28;20147;-79
2023/07/29 09:04:12;;;;;;;2.40;2.00;;;;;;;27.93;73.14;100552.31;5054205;28;20140;-78
2023/07/29 09:06:39;;;;;;;2.85;1.70;;;;;;;28.10;68.88;100556.88;5052932;28;20032;-76
2023/07/29 09:09:05;;;;;;;3.55;2.20;;;;;;;27.55;73.00;100560.72;5053321;28;20113;-78
2023/07/29 09:14:53;;;;;;;2.10;1.90;;;;;;;26.04;77.84;100550.19;5054130;28;20512;-79
2023/07/29 09:17:19;;;;;;;2.25;1.88;;;;;;;25.19;81.80;100547.09;5060215;28;20045;-77
2023/07/29 09:23:10;;;;;;;2.90;2.00;;;;;;;25.19;85.33;100544.34;5053347;28;20103;-77
2023/07/29 09:25:36;;;;;;;2.40;1.98;;;;;;;25.24;84.18;100538.72;5053435;28;20052;-77
2023/07/29 09:31:27;;;;;;;3.42;2.10;;;;;;;28.32;72.05;100535.28;5053035;28;20087;-75
2023/07/29 09:37:20;;;;;;;2.60;1.98;;;;;;;29.65;64.22;100546.63;5053257;28;20174;-77
2023/07/29 09:39:47;;;;;;;2.28;1.80;;;;;;;28.08;66.87;100541.50;5052793;28;20477;-76
2023/07/29 09:45:36;;;;;;;2.60;2.40;;;;;;;25.90;76.83;100538.59;5053239;28;20095;-75
2023/07/29 09:51:24;;;;;;;3.10;2.00;;;;;;;25.07;81.87;100537.88;5053435;28;20520;-79
2023/07/29 09:53:52;;;;;;;2.60;1.95;;;;;;;24.74;84.24;100543.69;5053652;28;20028;-79
2023/07/29 09:56:17;;;;;;;2.33;1.90;;;;;;;24.44;85.53;100544.53;5060010;28;20044;-76
2023/07/29 09:58:47;;;;;;;5.30;1.90;;;;;;;24.46;86.90;100537.63;5052528;28;20037;-77
2023/07/29 10:01:14;;;;;;;6.43;2.20;;;;;;;24.23;88.19;100547.75;5058981;28;20503;-76
2023/07/29 10:07:01;;;;;;;4.22;2.00;;;;;;;23.46;92.11;100542.50;5052751;28;20164;-76
2023/07/29 10:12:50;;;;;;;4.20;2.30;;;;;;;23.85;95.59;100538.34;5052637;28;20040;-75
2023/07/29 10:15:15;;;;;;;2.65;1.98;;;;;;;25.07;91.73;100538.69;5058999;28;20434;-77
2023/07/29 10:17:40;;;;;;;3.85;2.05;;;;;;;26.30;81.88;100541.91;5052261;28;20025;-77
2023/07/29 10:23:36;;;;;;;4.18;2.40;;;;;;;26.01;79.72;100539.06;5052704;28;20055;-76
2023/07/29 10:26:04;;;;;;;3.40;2.55;;;;;;;25.79;80.62;100531.84;5050819;28;20017;-77
2023/07/29 10:28:31;;;;;;;4.03;2.00;;;;;;;25.76;80.33;100527.03;5058818;28;20048;-77
2023/07/29 10:30:58;;;;;;;3.53;2.33;;;;;;;25.68;83.80;100534.09;5052098;28;20477;-77
2023/07/29 10:33:23;;;;;;;3.67;2.30;;;;;;;25.63;80.45;100526.81;5054924;28;20108;-76
2023/07/29 10:35:49;;;;;;;4.85;2.33;;;;;;;25.79;82.35;100521.69;5055930;28;20131;-77
2023/07/29 10:42:05;;;;;;;4.07;2.45;;;;;;;25.72;81.98;100515.88;5052097;28;20052;-76
2023/07/29 10:47:52;;;;;;;3.65;2.40;;;;;;;25.42;84.73;100508.59;5052380;28;20052;-75
2023/07/29 10:50:20;;;;;;;2.57;2.30;;;;;;;25.64;84.72;100513.94;5050607;28;20021;-76
2023/07/29 10:52:50;;;;;;;3.13;2.10;;;;;;;25.60;82.40;100504.75;5050857;28;20370;-76
2023/07/29 10:55:25;;;;;;;2.95;2.20;;;;;;;25.08;82.31;100503.91;5053029;28;20037;-78
2023/07/29 10:57:50;;;;;;;3.28;2.55;;;;;;;24.74;83.88;100513.63;5051622;28;20397;-77
2023/07/29 11:00:20;;;;;;;2.88;2.35;;;;;;;24.41;84.10;100507.69;5058309;28;20041;-76
2023/07/29 11:02:58;;;;;;;5.75;2.30;;;;;;;24.02;87.20;100506.50;5051660;28;20025;-76
2023/07/29 11:08:45;;;;;;;4.28;2.25;;;;;;;23.76;89.67;100509.06;5058095;28;20043;-75
2023/07/29 11:11:12;;;;;;;3.97;2.60;;;;;;;23.77;91.83;100513.41;5058140;28;20469;-75
2023/07/29 11:13:38;;;;;;;3.30;2.42;;;;;;;23.66;92.34;100514.75;5065070;28;20451;-75
2023/07/29 11:16:04;;;;;;;2.63;2.35;;;;;;;23.51;94.98;100509.63;5058145;28;20020;-76
2023/07/29 11:18:35;;;;;;;3.30;2.70;;;;;;;23.38;94.89;100514.00;5064750;28;20519;-77
2023/07/29 11:21:02;;;;;;;3.15;2.40;;;;;;;23.24;94.92;100520.63;5058268;28;20013;-76
2023/07/29 11:23:30;;;;;;;2.70;2.30;;;;;;;23.13;97.68;100530.91;5058085;28;20057;-75
2023/07/29 11:25:56;;;;;;;3.20;2.28;;;;;;;23.19;98.57;100529.72;5064847;28;20045;-76
2023/07/29 11:28:22;;;;;;;2.80;2.15;;;;;;;23.21;98.22;100510.31;5057860;28;20064;-75
2023/07/29 11:34:08;;;;;;;2.58;2.03;;;;;;;23.30;98.35;100522.13;5057995;28;20048;-75
2023/07/29 11:43:23;;;;;;;2.63;2.40;;;;;;;26.09;87.60;100517.13;5057944;28;20063;-75
2023/07/29 11:45:49;;;;;;;3.73;2.47;;;;;;;26.12;82.74;100524.72;5056401;28;20071;-75
2023/07/29 11:48:14;;;;;;;3.97;2.40;;;;;;;26.14;82.71;100510.69;5056218;28;20067;-75
2023/07/29 11:50:40;;;;;;;2.30;2.10;;;;;;;26.40;86.51;100521.59;5064551;28;20352;-76
2023/07/29 11:56:27;;;;;;;2.92;2.45;;;;;;;26.60;80.56;100504.44;5057774;28;20562;-76
2023/07/29 11:58:53;;;;;;;3.13;2.40;;;;;;;26.46;82.57;100499.16;5057505;28;20056;-74
2023/07/29 12:01:19;;;;;;;2.53;2.33;;;;;;;26.03;82.05;100488.31;5059639;28;20027;-75
2023/07/29 12:03:45;;;;;;;4.68;2.88;;;;;;;25.59;88.56;100490.25;5060799;28;20463;-76
2023/07/29 12:06:10;;;;;;;2.83;2.42;;;;;;;25.07;88.02;100513.25;5057548;28;20082;-75
2023/07/29 12:08:36;;;;;;;4.03;2.60;;;;;;;24.56;89.12;100517.41;5064234;28;20076;-75
2023/07/29 12:11:01;;;;;;;3.38;2.70;;;;;;;23.55;95.69;100523.47;5057306;28;20036;-75
2023/07/29 12:16:49;;;;;;;6.60;3.53;;;;;;;21.09;100.00;100544.34;5057520;28;20039;-77
2023/07/29 12:22:36;;;;;;;6.95;3.95;;;;;;;19.45;100.00;100543.38;5054037;28;20500;-85
2023/07/29 12:25:03;;;;;;;7.03;4.60;;;;;;;18.98;100.00;100552.00;5052774;28;20021;-82
2023/07/29 12:27:30;;;;;;;9.10;5.10;;;;;;;18.65;100.00;100567.81;5060552;28;20464;-82
2023/07/29 12:29:55;;;;;;;8.73;5.38;;;;;;;18.49;100.00;100575.09;5053771;28;20353;-82
2023/07/29 12:35:45;;;;;;;6.22;5.38;;;;;;;18.31;100.00;100593.81;5053863;28;20270;-84
2023/07/29 12:41:31;;;;;;;9.55;6.20;;;;;;;18.28;100.00;100570.81;5053583;28;20044;-82
2023/07/29 12:43:57;;;;;;;8.30;6.88;;;;;;;18.16;100.00;100543.19;5053462;28;20024;-83
2023/07/29 12:46:22;;;;;;;8.97;8.07;;;;;;;18.13;100.00;100541.84;5060383;28;20480;-82
2023/07/29 12:48:47;;;;;;;8.73;7.40;;;;;;;18.18;100.00;100547.25;5053554;28;20278;-84
2023/07/29 12:54:34;;;;;;;9.13;8.10;;;;;;;18.93;100.00;100563.69;5053406;28;20056;-84
2023/07/29 12:57:00;;;;;;;12.70;8.87;;;;;;;19.32;100.00;100558.34;5053330;28;20051;-84
2023/07/29 12:59:25;;;;;;;12.50;8.20;;;;;;;19.66;100.00;100560.34;5055298;28;20304;-84
2023/07/29 13:08:55;;;;;;;7.53;5.75;;;;;;;20.84;100.00;100567.25;5053420;28;20445;-82
2023/07/29 13:11:20;;;;;;;8.32;5.10;;;;;;;21.62;100.00;100563.25;5059821;28;20443;-83
2023/07/29 13:13:46;;;;;;;6.17;5.13;;;;;;;22.49;100.00;100568.97;5053121;28;20117;-82
2023/07/29 13:16:12;;;;;;;7.10;4.33;;;;;;;23.13;100.00;100564.50;5053067;28;20275;-81
2023/07/29 13:18:38;;;;;;;6.78;3.97;;;;;;;23.26;100.00;100562.03;5059877;28;20759;-82
2023/07/29 13:21:03;;;;;;;4.88;4.35;;;;;;;23.55;100.00;100569.88;5053082;28;20032;-81
2023/07/29 13:23:29;;;;;;;4.70;3.85;;;;;;;23.39;100.00;100561.19;5059612;28;20040;-82
2023/07/29 13:39:21;;;;;;;3.17;2.50;;;;;;;24.47;100.00;100550.16;5053037;28;20105;-78
2023/07/29 13:45:08;;;;;;;3.78;2.70;;;;;;;23.80;100.00;100544.75;5052534;28;20083;-82
2023/07/29 13:50:55;;;;;;;3.75;2.30;;;;;;;23.10;100.00;100540.53;5052908;28;20040;-82
2023/07/29 13:56:42;;;;;;;3.17;2.40;;;;;;;22.89;100.00;100552.97;5052374;28;20314;-82
2023/07/29 14:02:30;;;;;;;3.75;2.40;;;;;;;22.89;100.00;100542.06;5052334;28;20123;-81
2023/07/29 14:08:17;;;;;;;3.28;2.60;;;;;;;22.74;100.00;100545.06;5052392;28;20546;-81
2023/07/29 14:14:04;;;;;;;2.70;2.20;;;;;;;22.58;100.00;100528.22;5052187;28;20159;-82
2023/07/29 14:19:51;;;;;;;2.63;2.10;;;;;;;22.97;100.00;100530.44;5059086;28;20628;-82
2023/07/29 14:25:38;;;;;;;3.95;2.10;;;;;;;23.13;100.00;100534.50;5052019;28;20316;-81
2023/07/29 14:28:07;;;;;;;2.10;1.90;;;;;;;23.13;100.00;100529.03;5050719;28;20025;-80
2023/07/29 14:33:55;;;;;;;2.38;2.17;;;;;;;23.08;100.00;100522.84;5051829;28;20120;-82
2023/07/29 14:40:05;;;;;;;3.42;2.50;;;;;;;23.37;100.00;100497.94;5052179;28;20086;-80
2023/07/29 14:45:52;;;;;;;2.60;2.40;;;;;;;23.33;100.00;100521.50;5051805;28;20051;-81
2023/07/29 14:51:40;;;;;;;2.42;2.20;;;;;;;23.32;100.00;100536.25;5051926;28;20397;-79
2023/07/29 14:57:27;;;;;;;4.47;2.15;;;;;;;23.72;100.00;100515.44;5051752;28;20097;-81
2023/07/29 15:03:14;;;;;;;2.53;2.20;;;;;;;24.05;98.87;100507.81;5051538;28;20536;-80
2023/07/29 15:09:02;;;;;;;3.78;2.30;;;;;;;23.71;100.00;100508.38;5054513;28;20355;-79